Time;durP1;ratioP1;P1;durP2;ratioP2;P2;SDS_P1;SDS_P2;PMS_P1;PMS_P2;Temp;Humidity;BMP_temperature;BMP_pressure;BME280_temperature;BME280_humidity;BME280_pressure;Samples;Min_cycle;Max_cycle;Signal;HPM_P1;HPM_P2
2023/07/12 00:01:31;;;;;;;3.05;2.47;;;;;;;19.50;100.00;100752.81;5024862;28;20049;-81
2023/07/12 00:04:00;;;;;;;5.15;2.65;;;;;;;19.46;100.00;100762.75;5011995;28;20046;-81
2023/07/12 00:06:37;;;;;;;3.40;2.38;;;;;;;19.44;100.00;100757.44;5049444;28;20040;-82
2023/07/12 00:09:11;;;;;;;3.42;2.53;;;;;;;19.42;100.00;100755.78;5036477;28;20049;-81
2023/07/12 00:11:40;;;;;;;2.30;2.00;;;;;;;19.39;100.00;100738.03;5050352;28;20459;-80
2023/07/12 00:14:08;;;;;;;3.07;2.33;;;;;;;19.36;100.00;100735.47;5032941;28;20065;-80
2023/07/12 00:16:38;;;;;;;4.35;2.90;;;;;;;19.35;100.00;100738.22;5013195;28;20400;-81
2023/07/12 00:19:12;;;;;;;2.53;2.15;;;;;;;19.30;100.00;100719.69;5050074;28;20048;-81
2023/07/12 00:21:39;;;;;;;4.25;2.42;;;;;;;19.28;100.00;100719.72;4998497;28;20048;-81
2023/07/12 00:24:09;;;;;;;3.65;2.72;;;;;;;19.25;100.00;100724.31;5020402;28;20049;-81
2023/07/12 00:26:38;;;;;;;4.72;2.85;;;;;;;19.19;100.00;100722.72;5023906;28;20056;-82
2023/07/12 00:29:07;;;;;;;6.15;2.72;;;;;;;19.17;100.00;100724.56;5033403;28;20400;-81
2023/07/12 00:31:39;;;;;;;5.10;2.70;;;;;;;19.16;100.00;100725.47;5052070;28;20047;-82
2023/07/12 00:34:06;;;;;;;3.88;2.85;;;;;;;19.13;100.00;100714.91;5031857;28;20408;-81
2023/07/12 00:36:35;;;;;;;2.88;2.53;;;;;;;19.11;100.00;100713.22;5014398;28;20419;-81
2023/07/12 00:39:05;;;;;;;7.13;2.97;;;;;;;19.08;100.00;100714.19;5048176;28;20053;-81
2023/07/12 00:42:15;;;;;;;3.30;3.00;;;;;;;19.07;100.00;100718.69;5029971;28;20083;-83
2023/07/12 00:44:56;;;;;;;2.78;2.53;;;;;;;19.05;100.00;100717.84;5047992;28;20049;-81
2023/07/12 00:47:24;;;;;;;4.45;3.03;;;;;;;19.05;100.00;100709.84;5022680;28;20044;-81
2023/07/12 00:49:53;;;;;;;6.82;3.22;;;;;;;19.04;100.00;100705.41;5043406;28;20049;-80
2023/07/12 00:52:22;;;;;;;3.92;3.15;;;;;;;19.01;100.00;100708.19;4999961;28;20057;-82
2023/07/12 00:54:49;;;;;;;7.40;3.30;;;;;;;19.00;100.00;100697.56;5021754;28;20053;-82
2023/07/12 00:57:21;;;;;;;3.88;2.85;;;;;;;18.98;100.00;100680.72;5036761;28;20062;-82
2023/07/12 00:59:52;;;;;;;3.80;3.05;;;;;;;18.96;100.00;100687.91;5048759;28;20037;-81
2023/07/12 01:02:24;;;;;;;4.70;2.85;;;;;;;18.93;100.00;100674.69;5021519;28;20775;-80
2023/07/12 01:04:59;;;;;;;6.47;3.65;;;;;;;18.89;100.00;100676.56;5017544;28;20057;-81
2023/07/12 01:07:30;;;;;;;5.47;3.33;;;;;;;18.87;100.00;100673.94;5049881;28;20053;-82
2023/07/12 01:09:58;;;;;;;5.03;3.08;;;;;;;18.82;100.00;100654.53;4992941;28;20037;-80
2023/07/12 01:12:26;;;;;;;4.72;3.42;;;;;;;18.79;100.00;100657.28;5009837;28;20092;-81
2023/07/12 01:14:53;;;;;;;4.13;3.17;;;;;;;18.78;100.00;100662.69;5033707;28;20037;-82
2023/07/12 01:17:23;;;;;;;3.55;3.20;;;;;;;18.76;100.00;100653.84;5003580;28;20342;-82
2023/07/12 01:19:50;;;;;;;5.25;3.25;;;;;;;18.75;100.00;100641.41;5022062;28;20472;-83
2023/07/12 01:22:18;;;;;;;5.05;3.30;;;;;;;18.73;100.00;100645.94;5027498;28;20046;-82
2023/07/12 01:24:45;;;;;;;7.72;4.15;;;;;;;18.69;100.00;100667.41;4992883;28;20046;-81
2023/07/12 01:27:18;;;;;;;6.60;3.30;;;;;;;18.64;100.00;100665.81;5032311;28;20048;-80
2023/07/12 01:29:48;;;;;;;4.80;3.35;;;;;;;18.57;100.00;100673.13;5019635;28;20060;-82
2023/07/12 01:32:16;;;;;;;4.40;3.30;;;;;;;18.53;100.00;100671.50;5029364;28;20755;-81
2023/07/12 01:34:45;;;;;;;4.47;3.30;;;;;;;18.51;100.00;100670.69;5036567;28;20287;-82
2023/07/12 01:37:14;;;;;;;7.28;3.17;;;;;;;18.45;100.00;100676.19;5038858;28;20041;-81
2023/07/12 01:39:41;;;;;;;6.32;3.33;;;;;;;18.42;100.00;100677.19;4984954;28;20072;-82
2023/07/12 01:42:10;;;;;;;10.32;4.10;;;;;;;18.41;100.00;100679.88;5043305;28;20045;-81
2023/07/12 01:44:38;;;;;;;8.20;3.75;;;;;;;18.38;100.00;100686.19;5036432;28;20041;-81
2023/07/12 01:47:06;;;;;;;4.53;3.53;;;;;;;18.35;100.00;100682.75;5043907;28;20045;-82
2023/07/12 01:49:33;;;;;;;5.10;3.47;;;;;;;18.33;100.00;100679.28;5033895;28;20045;-81
2023/07/12 01:52:02;;;;;;;4.88;3.33;;;;;;;18.30;100.00;100690.91;5002249;28;20056;-81
2023/07/12 01:54:30;;;;;;;9.20;3.70;;;;;;;18.26;100.00;100679.47;5035263;28;20045;-81
2023/07/12 01:56:58;;;;;;;6.00;3.33;;;;;;;18.26;100.00;100671.47;5010544;28;20311;-81
2023/07/12 01:59:25;;;;;;;9.63;3.85;;;;;;;18.26;100.00;100684.81;5026048;28;20036;-81
2023/07/12 02:01:54;;;;;;;7.18;3.30;;;;;;;18.25;100.00;100693.72;5006541;28;20144;-81
2023/07/12 02:04:21;;;;;;;4.57;3.00;;;;;;;18.24;100.00;100683.97;5026612;28;20045;-82
2023/07/12 02:06:50;;;;;;;7.07;3.63;;;;;;;18.24;100.00;100677.75;5042716;28;20054;-80
2023/07/12 02:09:17;;;;;;;9.13;3.17;;;;;;;18.21;100.00;100676.06;5040668;28;20436;-81
2023/07/12 02:11:44;;;;;;;3.88;3.47;;;;;;;18.20;100.00;100671.63;5001374;28;20045;-82
2023/07/12 02:14:12;;;;;;;4.38;3.40;;;;;;;18.20;100.00;100671.63;5027139;28;20451;-81
2023/07/12 02:16:39;;;;;;;7.80;2.80;;;;;;;18.18;100.00;100672.63;5007677;28;20049;-82
2023/07/12 02:19:07;;;;;;;8.18;3.10;;;;;;;18.14;100.00;100669.16;5036030;28;20515;-81
2023/07/12 02:21:35;;;;;;;6.47;3.40;;;;;;;18.10;100.00;100662.19;5035712;28;20041;-81
2023/07/12 02:24:03;;;;;;;5.95;4.05;;;;;;;18.07;100.00;100671.16;5028100;28;20052;-81
2023/07/12 02:26:30;;;;;;;7.07;3.30;;;;;;;18.01;100.00;100658.00;4991376;28;20053;-80
2023/07/12 02:28:57;;;;;;;11.82;3.95;;;;;;;17.98;100.00;100647.44;5022847;28;20049;-81
2023/07/12 02:31:25;;;;;;;6.30;3.55;;;;;;;17.96;100.00;100651.06;4999019;28;20053;-80
2023/07/12 02:33:55;;;;;;;;;;;;;;;17.91;100.00;100646.75;5035788;28;20063;-81
2023/07/12 02:36:23;;;;;;;7.20;3.45;;;;;;;17.88;100.00;100649.53;5047324;28;19928;-81
2023/07/12 02:38:51;;;;;;;6.40;3.78;;;;;;;17.85;100.00;100651.41;5018458;28;20057;-81
2023/07/12 02:41:19;;;;;;;6.20;3.80;;;;;;;17.82;100.00;100676.31;5029137;28;20261;-81
2023/07/12 02:43:47;;;;;;;5.55;3.92;;;;;;;17.81;100.00;100687.03;4981049;28;20049;-80
2023/07/12 02:46:15;;;;;;;4.57;3.20;;;;;;;17.79;100.00;100689.75;5011327;28;20143;-81
2023/07/12 02:48:44;;;;;;;6.90;4.00;;;;;;;17.76;100.00;100692.50;5047853;28;20504;-82
2023/07/12 02:51:11;;;;;;;7.20;4.15;;;;;;;17.72;100.00;100696.16;5050767;28;20060;-81
2023/07/12 02:53:40;;;;;;;8.15;3.75;;;;;;;17.67;100.00;100703.41;5004929;28;20060;-82
2023/07/12 02:56:08;;;;;;;11.15;4.10;;;;;;;17.64;100.00;100703.53;5029988;28;20085;-81
2023/07/12 02:58:37;;;;;;;13.68;4.43;;;;;;;17.61;100.00;100707.13;4957804;28;20052;-81
2023/07/12 03:01:05;;;;;;;9.38;4.78;;;;;;;17.57;100.00;100697.47;5017731;28;20049;-80
2023/07/12 03:03:33;;;;;;;7.25;4.07;;;;;;;17.54;100.00;100677.13;5038668;28;20040;-81
2023/07/12 03:06:10;;;;;;;9.30;4.70;;;;;;;17.51;100.00;100690.53;5031909;28;20057;-80
2023/07/12 03:08:38;;;;;;;7.30;3.70;;;;;;;17.47;100.00;100680.88;5042094;28;20512;-81
2023/07/12 03:11:08;;;;;;;12.18;4.50;;;;;;;17.46;100.00;100672.94;5051611;28;20065;-81
2023/07/12 03:13:36;;;;;;;12.55;5.05;;;;;;;17.48;100.00;100663.97;5051160;28;20060;-81
2023/07/12 03:16:05;;;;;;;10.45;4.68;;;;;;;17.49;100.00;100671.06;4986354;28;20056;-81
2023/07/12 03:18:32;;;;;;;10.35;5.40;;;;;;;17.48;100.00;100665.75;5043492;28;20050;-81
2023/07/12 03:21:02;;;;;;;10.88;5.22;;;;;;;17.47;100.00;100648.91;5049817;28;20040;-81
2023/07/12 03:23:32;;;;;;;11.15;5.03;;;;;;;17.45;100.00;100624.13;5048960;28;20044;-81
2023/07/12 03:26:00;;;;;;;11.50;5.88;;;;;;;17.45;100.00;100624.13;5039644;28;20045;-80
2023/07/12 03:28:28;;;;;;;11.55;4.80;;;;;;;17.44;100.00;100630.34;5013428;28;20045;-82
2023/07/12 03:31:04;;;;;;;10.13;5.00;;;;;;;17.42;100.00;100605.53;5004984;28;20052;-81
2023/07/12 03:33:32;;;;;;;14.88;4.68;;;;;;;17.40;100.00;100575.41;5041411;28;20056;-81
2023/07/12 03:36:00;;;;;;;11.65;5.28;;;;;;;17.40;100.00;100612.72;5049606;28;20037;-81
2023/07/12 03:38:30;;;;;;;13.68;5.28;;;;;;;17.36;100.00;100621.72;5049596;28;20074;-81
2023/07/12 03:41:03;;;;;;;8.80;5.28;;;;;;;17.32;100.00;100615.59;5034351;28;20053;-81
2023/07/12 03:43:33;;;;;;;12.57;5.40;;;;;;;17.33;100.00;100568.53;5046840;28;20048;-81
2023/07/12 03:46:01;;;;;;;11.13;4.85;;;;;;;17.32;100.00;100582.78;4996808;28;20060;-80
2023/07/12 03:48:29;;;;;;;12.57;5.40;;;;;;;17.28;100.00;100611.28;5035477;28;20029;-82
2023/07/12 03:50:57;;;;;;;13.13;5.20;;;;;;;17.27;100.00;100609.50;5007398;28;20057;-80
2023/07/12 03:53:26;;;;;;;15.18;5.53;;;;;;;17.27;100.00;100635.28;5013303;28;20053;-83
2023/07/12 03:55:58;;;;;;;10.52;4.70;;;;;;;17.26;100.00;100660.19;5040785;28;20045;-80
2023/07/12 03:58:28;;;;;;;11.80;5.35;;;;;;;17.28;100.00;100679.66;5029352;28;20060;-80
2023/07/12 04:00:56;;;;;;;7.80;4.43;;;;;;;17.27;100.00;100716.03;5011447;28;20411;-80
2023/07/12 04:03:23;;;;;;;12.07;4.47;;;;;;;17.26;100.00;100698.31;4981708;28;20061;-81
2023/07/12 04:05:53;;;;;;;9.87;4.60;;;;;;;17.30;100.00;100699.13;5039266;28;20059;-81
2023/07/12 04:08:21;;;;;;;12.73;5.18;;;;;;;17.28;100.00;100700.97;5011094;28;20303;-82
2023/07/12 04:10:53;;;;;;;10.23;4.55;;;;;;;17.26;100.00;100681.47;5034319;28;20056;-81
2023/07/12 04:13:21;;;;;;;14.05;5.10;;;;;;;17.26;100.00;100670.84;5033783;28;20056;-81
2023/07/12 04:15:53;;;;;;;17.27;5.28;;;;;;;17.27;100.00;100672.56;5049900;28;20041;-81
2023/07/12 04:18:24;;;;;;;12.45;4.82;;;;;;;17.26;100.00;100669.03;5001910;28;20052;-81
2023/07/12 04:20:53;;;;;;;17.50;5.72;;;;;;;17.28;100.00;100679.66;5043149;28;20053;-81
2023/07/12 04:23:21;;;;;;;16.60;5.32;;;;;;;17.30;100.00;100683.16;5037343;28;20056;-80
2023/07/12 04:25:58;;;;;;;17.70;5.30;;;;;;;17.27;100.00;100677.88;5036757;28;20046;-81
2023/07/12 04:28:26;;;;;;;9.50;4.70;;;;;;;17.26;100.00;100685.00;5045805;28;20044;-82
2023/07/12 04:30:54;;;;;;;13.82;4.93;;;;;;;17.23;100.00;100698.41;5034115;28;20043;-79
2023/07/12 04:33:23;;;;;;;9.95;4.97;;;;;;;17.21;100.00;100689.56;4983448;28;20054;-81
2023/07/12 04:35:50;;;;;;;16.35;5.10;;;;;;;17.20;100.00;100684.28;5026655;28;20061;-81
2023/07/12 04:38:17;;;;;;;15.05;5.72;;;;;;;17.18;100.00;100683.47;4992243;28;20496;-82
2023/07/12 04:40:54;;;;;;;11.38;5.13;;;;;;;17.18;100.00;100683.47;5015236;28;20381;-81
2023/07/12 04:43:22;;;;;;;16.13;5.88;;;;;;;17.16;100.00;100694.13;5049698;28;20041;-82
2023/07/12 04:45:50;;;;;;;13.10;5.47;;;;;;;17.15;100.00;100698.59;5024443;28;20061;-81
2023/07/12 04:48:17;;;;;;;17.25;5.78;;;;;;;17.17;100.00;100705.69;4981824;28;20680;-80
2023/07/12 04:50:45;;;;;;;17.00;4.72;;;;;;;17.18;100.00;100718.94;5017912;28;20052;-80
2023/07/12 04:53:14;;;;;;;16.65;5.30;;;;;;;17.21;100.00;100718.88;5014513;28;20041;-81
2023/07/12 04:55:41;;;;;;;17.40;5.35;;;;;;;17.23;100.00;100725.03;5019948;28;20145;-81
2023/07/12 04:58:09;;;;;;;17.25;4.68;;;;;;;17.25;100.00;100725.00;5033564;28;20048;-81
2023/07/12 05:00:37;;;;;;;21.42;5.55;;;;;;;17.27;100.00;100734.69;5024807;28;20056;-81
2023/07/12 05:03:05;;;;;;;11.10;4.75;;;;;;;17.26;100.00;100732.94;5031832;28;20424;-81
2023/07/12 05:05:32;;;;;;;18.00;5.95;;;;;;;17.24;100.00;100732.13;4960980;28;20076;-81
2023/07/12 05:08:00;;;;;;;15.57;5.20;;;;;;;17.23;100.00;100733.00;5017488;28;20053;-81
2023/07/12 05:10:27;;;;;;;15.07;4.65;;;;;;;17.23;100.00;100740.13;4985192;28;20687;-80
2023/07/12 05:12:55;;;;;;;17.38;5.35;;;;;;;17.24;100.00;100739.22;5003719;28;20500;-83
2023/07/12 05:15:22;;;;;;;16.00;5.10;;;;;;;17.23;100.00;100741.00;5014860;28;20057;-80
2023/07/12 05:17:51;;;;;;;17.38;5.00;;;;;;;17.22;100.00;100736.59;5016497;28;20065;-82
2023/07/12 05:20:19;;;;;;;15.82;5.10;;;;;;;17.24;100.00;100744.53;5006511;28;20095;-83
2023/07/12 05:22:47;;;;;;;16.27;5.32;;;;;;;17.33;100.00;100745.19;5035205;28;20052;-83
2023/07/12 05:25:15;;;;;;;12.55;4.80;;;;;;;17.54;100.00;100740.19;5024741;28;20059;-81
2023/07/12 05:27:42;;;;;;;11.10;4.75;;;;;;;17.67;100.00;100751.38;5046688;28;20071;-80
2023/07/12 05:30:11;;;;;;;17.75;5.70;;;;;;;17.79;100.00;100750.16;5024828;28;20502;-81
2023/07/12 05:32:40;;;;;;;12.30;5.03;;;;;;;17.79;100.00;100740.38;5030306;28;20057;-83
2023/07/12 05:35:09;;;;;;;16.77;5.15;;;;;;;17.83;100.00;100743.84;5019221;28;23133;-84
2023/07/12 05:37:36;;;;;;;14.02;4.97;;;;;;;17.84;100.00;100740.25;5026414;28;20045;-83
2023/07/12 05:40:05;;;;;;;13.95;5.30;;;;;;;17.97;100.00;100741.66;5003194;28;20495;-84
2023/07/12 05:42:33;;;;;;;13.27;5.15;;;;;;;18.05;100.00;100745.00;5028367;28;20060;-84
2023/07/12 05:45:00;;;;;;;13.88;4.65;;;;;;;18.16;100.00;100747.34;5031736;28;20041;-83
2023/07/12 05:47:28;;;;;;;15.57;5.22;;;;;;;18.17;100.00;100740.22;5048607;28;20060;-84
2023/07/12 05:49:56;;;;;;;16.95;4.65;;;;;;;18.19;100.00;100736.59;5048905;28;20052;-84
2023/07/12 05:52:24;;;;;;;10.68;4.25;;;;;;;18.19;100.00;100727.72;4981233;28;20065;-83
2023/07/12 05:54:51;;;;;;;17.88;4.97;;;;;;;18.19;100.00;100733.06;5033279;28;20045;-83
2023/07/12 05:57:19;;;;;;;13.10;5.00;;;;;;;18.14;100.00;100745.63;5043940;28;20049;-80
2023/07/12 05:59:46;;;;;;;14.63;4.95;;;;;;;18.08;100.00;100730.69;5014254;28;20065;-83
2023/07/12 06:02:14;;;;;;;13.00;4.95;;;;;;;18.20;100.00;100724.13;5022858;28;20041;-82
2023/07/12 06:04:42;;;;;;;15.07;4.88;;;;;;;18.37;100.00;100727.13;5024872;28;20069;-81
2023/07/12 06:07:09;;;;;;;14.02;4.70;;;;;;;18.47;100.00;100719.72;4969060;28;20048;-82
2023/07/12 06:09:36;;;;;;;11.45;4.70;;;;;;;18.91;100.00;100727.25;5037183;28;20435;-81
2023/07/12 06:12:05;;;;;;;11.40;5.45;;;;;;;19.11;100.00;100735.47;4994604;28;20057;-81
2023/07/12 06:14:32;;;;;;;15.57;4.82;;;;;;;19.06;100.00;100743.63;5018181;28;20053;-81
2023/07/12 06:17:00;;;;;;;14.80;4.55;;;;;;;18.92;100.00;100737.00;5028482;28;20064;-82
2023/07/12 06:19:27;;;;;;;14.48;5.05;;;;;;;18.80;100.00;100751.59;5023659;28;20058;-83
2023/07/12 06:21:55;;;;;;;15.98;4.53;;;;;;;18.63;100.00;100758.34;5011400;28;20444;-82
2023/07/12 06:24:22;;;;;;;8.98;3.90;;;;;;;18.49;100.00;100774.78;5056980;28;20053;-83
2023/07/12 06:26:50;;;;;;;11.95;4.47;;;;;;;18.33;100.00;100775.28;5036614;28;20045;-83
2023/07/12 06:29:17;;;;;;;14.55;5.03;;;;;;;18.20;100.00;100780.97;5008512;28;20527;-83
2023/07/12 06:31:45;;;;;;;15.23;4.85;;;;;;;18.08;100.00;100784.03;5028448;28;20064;-82
2023/07/12 06:34:12;;;;;;;12.65;5.10;;;;;;;18.03;100.00;100778.81;5042606;28;20045;-83
2023/07/12 06:36:39;;;;;;;11.75;4.43;;;;;;;18.01;100.00;100780.66;5012285;28;20060;-84
2023/07/12 06:39:07;;;;;;;14.40;5.18;;;;;;;18.10;100.00;100760.84;5013318;28;20048;-83
2023/07/12 06:41:34;;;;;;;15.63;5.53;;;;;;;18.29;100.00;100750.50;5023975;28;20053;-83
2023/07/12 06:44:02;;;;;;;15.10;5.47;;;;;;;18.49;100.00;100763.25;5007705;28;20053;-84
2023/07/12 06:46:29;;;;;;;18.27;5.22;;;;;;;18.65;100.00;100763.63;5039370;28;20053;-83
2023/07/12 06:48:57;;;;;;;11.73;4.82;;;;;;;18.84;100.00;100775.50;5042284;28;20467;-83
2023/07/12 06:51:24;;;;;;;11.10;4.47;;;;;;;19.08;100.00;100771.16;5056348;28;20056;-84
2023/07/12 06:53:52;;;;;;;19.00;4.95;;;;;;;19.37;100.00;100757.72;5015936;28;20061;-83
2023/07/12 06:56:19;;;;;;;16.70;5.28;;;;;;;19.65;100.00;100766.50;5039302;28;20048;-84
2023/07/12 06:58:46;;;;;;;12.77;4.68;;;;;;;19.72;100.00;100759.19;5005490;28;20060;-81
2023/07/12 07:01:14;;;;;;;9.57;4.40;;;;;;;19.72;100.00;100774.34;5020336;28;20056;-83
2023/07/12 07:03:42;;;;;;;16.35;4.85;;;;;;;19.67;100.00;100764.66;5027929;28;20052;-82
2023/07/12 07:06:09;;;;;;;12.85;4.38;;;;;;;19.63;100.00;100771.03;5023060;28;20272;-84
2023/07/12 07:08:37;;;;;;;13.52;4.63;;;;;;;19.53;100.00;100771.41;5003243;28;20041;-82
2023/07/12 07:11:04;;;;;;;18.45;4.53;;;;;;;19.61;100.00;100772.03;5022112;28;20071;-83
2023/07/12 07:13:32;;;;;;;13.38;4.50;;;;;;;19.72;100.00;100774.34;5025531;28;20053;-82
2023/07/12 07:15:59;;;;;;;8.57;4.13;;;;;;;19.76;100.00;100770.66;5024110;28;20053;-83
2023/07/12 07:18:28;;;;;;;13.35;4.63;;;;;;;19.71;100.00;100773.44;5037491;28;20044;-82
2023/07/12 07:20:59;;;;;;;15.13;5.35;;;;;;;19.74;100.00;100777.84;5019552;28;20053;-83
2023/07/12 07:23:26;;;;;;;13.75;4.13;;;;;;;19.83;100.00;100797.09;5004976;28;20053;-83
2023/07/12 07:25:54;;;;;;;15.10;3.92;;;;;;;19.98;100.00;100786.75;5047373;28;20067;-83
2023/07/12 07:28:21;;;;;;;10.77;3.92;;;;;;;20.16;100.00;100785.22;4988240;28;20056;-83
2023/07/12 07:30:55;;;;;;;10.10;3.85;;;;;;;20.18;100.00;100784.22;5051333;28;20045;-82
2023/07/12 07:33:23;;;;;;;9.50;3.92;;;;;;;20.16;100.00;100778.06;5042129;28;20041;-83
2023/07/12 07:35:50;;;;;;;11.07;3.60;;;;;;;20.24;100.00;100780.44;5052080;28;20057;-83
2023/07/12 07:38:18;;;;;;;9.13;3.75;;;;;;;20.34;100.00;100789.88;5028500;28;20083;-82
2023/07/12 07:40:45;;;;;;;12.00;4.05;;;;;;;20.37;100.00;100796.91;4982082;28;20060;-82
2023/07/12 07:43:14;;;;;;;12.82;3.88;;;;;;;20.45;100.00;100798.38;5049163;28;20068;-81
2023/07/12 07:45:41;;;;;;;14.67;4.47;;;;;;;20.59;100.00;100800.50;5023559;28;20060;-82
2023/07/12 07:48:11;;;;;;;8.05;3.08;;;;;;;20.60;100.00;100807.63;5039468;28;20049;-82
2023/07/12 07:50:41;;;;;;;7.88;2.80;;;;;;;20.62;100.00;100800.41;5008001;28;20045;-83
2023/07/12 07:53:11;;;;;;;13.52;3.38;;;;;;;20.57;100.00;100806.84;5052748;28;20045;-82
2023/07/12 07:55:45;;;;;;;12.07;3.85;;;;;;;20.48;100.00;100810.75;4980062;28;20511;-83
2023/07/12 07:58:12;;;;;;;11.48;3.63;;;;;;;20.29;100.00;100812.38;5028178;28;20056;-83
2023/07/12 08:00:40;;;;;;;9.07;3.55;;;;;;;20.18;100.00;100818.13;5030483;28;20049;-83
2023/07/12 08:03:08;;;;;;;11.30;3.20;;;;;;;20.23;100.00;100825.06;5039117;28;20402;-82
2023/07/12 08:05:36;;;;;;;11.40;2.90;;;;;;;20.38;100.00;100818.25;5051740;28;20051;-82
2023/07/12 08:08:04;;;;;;;9.00;3.00;;;;;;;20.55;100.00;100819.44;5023352;28;20037;-82
2023/07/12 08:10:32;;;;;;;11.45;3.53;;;;;;;20.59;100.00;100824.59;5012575;28;20045;-82
2023/07/12 08:13:00;;;;;;;10.02;3.15;;;;;;;20.48;100.00;100840.19;5008202;28;20053;-84
2023/07/12 08:15:29;;;;;;;13.10;3.28;;;;;;;20.32;100.00;100845.25;5021019;28;20418;-83
2023/07/12 08:17:57;;;;;;;12.35;3.78;;;;;;;20.22;100.00;100834.00;5004956;28;20507;-81
2023/07/12 08:20:25;;;;;;;12.27;3.20;;;;;;;20.09;100.00;100837.19;5049534;28;20053;-84
2023/07/12 08:23:07;;;;;;;8.55;3.67;;;;;;;20.01;100.00;100840.16;5031403;28;20052;-84
2023/07/12 08:25:38;;;;;;;9.20;2.85;;;;;;;19.91;100.00;100847.63;5029191;28;20052;-83
2023/07/12 08:28:13;;;;;;;15.40;3.63;;;;;;;19.81;100.00;100843.53;5002720;28;20063;-83
2023/07/12 08:31:01;;;;;;;12.93;3.25;;;;;;;19.67;100.00;100852.00;5030194;28;20053;-81
2023/07/12 08:33:41;;;;;;;13.52;4.05;;;;;;;19.47;100.00;100866.94;5033584;28;20762;-81
2023/07/12 08:36:11;;;;;;;17.45;4.55;;;;;;;19.24;100.00;100861.44;5023296;28;20045;-84
2023/07/12 08:38:40;;;;;;;14.85;4.38;;;;;;;19.12;100.00;100868.06;5025331;28;20049;-81
2023/07/12 08:41:26;;;;;;;12.63;4.47;;;;;;;19.07;100.00;100870.91;5052052;28;20057;-82
2023/07/12 08:44:44;;;;;;;13.48;4.15;;;;;;;19.05;100.00;100871.84;4982787;28;20591;-83
2023/07/12 08:47:21;;;;;;;11.18;4.22;;;;;;;19.00;100.00;100865.81;5050352;28;20049;-84
2023/07/12 08:50:27;;;;;;;9.18;4.03;;;;;;;19.06;100.00;100869.13;5022216;28;20041;-83
2023/07/12 08:53:24;;;;;;;12.85;4.03;;;;;;;19.15;100.00;100862.66;5038101;28;20060;-85
2023/07/12 08:56:02;;;;;;;13.40;4.38;;;;;;;19.29;100.00;100865.72;5037448;28;20060;-84
2023/07/12 08:59:15;;;;;;;13.57;3.88;;;;;;;19.41;100.00;100867.13;4994161;28;20492;-82
2023/07/12 09:02:03;;;;;;;11.38;3.60;;;;;;;19.48;100.00;100875.81;5002538;28;20053;-81
2023/07/12 09:04:31;;;;;;;8.15;2.72;;;;;;;19.47;100.00;100887.44;5053462;28;20053;-82
2023/07/12 09:07:04;;;;;;;8.70;3.22;;;;;;;19.42;100.00;100882.22;4998400;28;20037;-82
2023/07/12 09:09:37;;;;;;;11.45;3.08;;;;;;;19.45;100.00;100889.25;5040473;28;20049;-80
2023/07/12 09:12:07;;;;;;;7.05;2.42;;;;;;;19.52;100.00;100897.97;5008460;28;20064;-81
2023/07/12 09:14:37;;;;;;;5.10;2.35;;;;;;;19.62;100.00;100902.06;5013924;28;20052;-81
2023/07/12 09:17:21;;;;;;;8.80;2.30;;;;;;;19.72;100.00;100895.53;5018952;28;20049;-81
2023/07/12 09:19:50;;;;;;;8.82;2.60;;;;;;;19.76;100.00;100891.81;5040171;28;20415;-80
2023/07/12 09:22:19;;;;;;;5.13;2.88;;;;;;;19.84;100.00;100894.22;4994174;28;20077;-81
2023/07/12 09:24:52;;;;;;;7.00;2.55;;;;;;;19.80;100.00;100893.47;5033013;28;20052;-80
2023/07/12 09:27:25;;;;;;;8.38;2.80;;;;;;;19.70;100.00;100909.81;5026481;28;20060;-82
2023/07/12 09:30:11;;;;;;;9.45;2.17;;;;;;;19.70;100.00;100905.38;5006008;28;20412;-82
2023/07/12 09:32:41;;;;;;;7.63;2.50;;;;;;;19.70;100.00;100897.34;5025690;28;20049;-80
2023/07/12 09:35:29;;;;;;;10.00;2.83;;;;;;;19.68;100.00;100902.75;5036171;28;20536;-80
2023/07/12 09:38:04;;;;;;;8.25;3.03;;;;;;;19.70;100.00;100910.72;5029138;28;20059;-80
2023/07/12 09:40:38;;;;;;;6.95;3.25;;;;;;;19.77;100.00;100911.41;5045677;28;20968;-80
2023/07/12 09:43:17;;;;;;;11.32;2.70;;;;;;;19.80;100.00;100922.88;5040318;28;20151;-80
2023/07/12 09:46:05;;;;;;;8.90;2.70;;;;;;;19.89;100.00;100926.19;4999485;28;20053;-81
2023/07/12 09:49:03;;;;;;;10.65;2.95;;;;;;;20.10;100.00;100914.72;5041825;28;20503;-79
2023/07/12 09:51:37;;;;;;;8.02;2.65;;;;;;;20.29;100.00;100919.41;5038262;28;20052;-79
2023/07/12 09:54:33;;;;;;;7.90;2.60;;;;;;;20.39;100.00;100910.13;5043829;28;20042;-79
2023/07/12 09:57:26;;;;;;;9.38;2.28;;;;;;;20.50;100.00;100913.28;5044108;28;20049;-81
2023/07/12 10:00:24;;;;;;;8.23;2.45;;;;;;;20.54;100.00;100906.88;5022442;28;20084;-80
2023/07/12 10:03:21;;;;;;;6.35;1.90;;;;;;;20.53;100.00;100915.84;4991558;28;20042;-78
2023/07/12 10:05:57;;;;;;;7.25;2.25;;;;;;;20.42;100.00;100923.41;5030911;28;20049;-79
2023/07/12 10:08:37;;;;;;;2.30;1.40;;;;;;;20.31;100.00;100918.44;5042762;28;20041;-79
2023/07/12 10:11:18;;;;;;;4.15;2.15;;;;;;;20.22;100.00;100914.25;5040330;28;20052;-80
2023/07/12 10:13:56;;;;;;;4.78;1.92;;;;;;;20.15;100.00;100934.16;5046235;28;20057;-78
2023/07/12 10:16:30;;;;;;;4.47;2.05;;;;;;;20.12;100.00;100923.56;5025352;28;20056;-78
2023/07/12 10:19:05;;;;;;;8.43;2.10;;;;;;;20.15;100.00;100922.56;4997748;28;20496;-78
2023/07/12 10:21:34;;;;;;;9.23;2.45;;;;;;;20.35;100.00;100913.84;5027798;28;20431;-79
2023/07/12 10:24:14;;;;;;;9.57;2.10;;;;;;;20.60;100.00;100924.53;5015963;28;20050;-81
2023/07/12 10:26:43;;;;;;;5.72;2.00;;;;;;;20.88;100.00;100916.31;5047093;28;20423;-81
2023/07/12 10:29:21;;;;;;;7.73;2.57;;;;;;;21.01;100.00;100922.09;5035793;28;20496;-80
2023/07/12 10:31:56;;;;;;;3.97;1.50;;;;;;;21.01;100.00;100931.00;5016282;28;20583;-78
2023/07/12 10:34:46;;;;;;;6.95;2.15;;;;;;;20.85;100.00;100929.84;5051625;28;20060;-79
2023/07/12 10:37:29;;;;;;;6.38;1.88;;;;;;;20.95;100.00;100933.91;5031474;28;20052;-78
2023/07/12 10:39:58;;;;;;;7.00;1.75;;;;;;;21.21;100.00;100927.53;5003411;28;20053;-79
2023/07/12 10:42:41;;;;;;;3.30;1.50;;;;;;;21.43;100.00;100932.03;5033342;28;20056;-77
2023/07/12 10:45:18;;;;;;;7.90;2.47;;;;;;;21.64;100.00;100941.03;5006892;28;20049;-79
2023/07/12 10:47:47;;;;;;;5.35;1.88;;;;;;;21.74;100.00;100942.41;5001237;28;20049;-78
2023/07/12 10:50:37;;;;;;;3.42;1.50;;;;;;;21.60;100.00;100944.78;5028830;28;20072;-78
2023/07/12 10:53:16;;;;;;;1.38;1.20;;;;;;;21.40;100.00;100953.63;5023981;28;20064;-79
2023/07/12 10:56:17;;;;;;;2.53;1.17;;;;;;;21.20;100.00;100946.34;5023387;28;20060;-78
2023/07/12 10:58:59;;;;;;;3.20;1.05;;;;;;;20.99;100.00;100961.47;5021572;28;20072;-79
2023/07/12 11:01:42;;;;;;;6.60;1.40;;;;;;;21.01;100.00;100947.06;5021514;28;20064;-78
2023/07/12 11:04:11;;;;;;;3.83;1.40;;;;;;;21.25;100.00;100943.47;4987870;28;20045;-79
2023/07/12 11:06:56;;;;;;;6.05;1.80;;;;;;;21.51;100.00;100955.88;5038357;28;20049;-78
2023/07/12 11:09:47;;;;;;;6.30;1.85;;;;;;;21.53;100.00;100968.28;5018695;28;20052;-79
2023/07/12 11:12:14;;;;;;;3.22;1.65;;;;;;;21.61;100.00;100971.53;4997608;28;20061;-77
2023/07/12 11:14:51;;;;;;;2.78;1.30;;;;;;;21.68;100.00;100968.59;5018625;28;20061;-77
2023/07/12 11:17:28;;;;;;;3.78;1.77;;;;;;;21.51;100.00;100980.91;5038495;28;20050;-78
2023/07/12 11:20:07;;;;;;;3.25;1.25;;;;;;;21.32;100.00;100972.69;4995493;28;20053;-78
2023/07/12 11:22:55;;;;;;;2.80;1.20;;;;;;;21.28;100.00;100979.06;5042279;28;20526;-79
2023/07/12 11:25:26;;;;;;;4.93;1.58;;;;;;;21.54;100.00;100983.44;5027791;28;20048;-78
2023/07/12 11:27:59;;;;;;;2.15;1.40;;;;;;;21.78;100.00;100978.00;5046743;28;20045;-78
2023/07/12 11:30:26;;;;;;;4.00;1.70;;;;;;;21.79;100.00;100983.28;5041803;28;20021;-78
2023/07/12 11:33:15;;;;;;;4.47;1.35;;;;;;;21.68;100.00;100988.25;5040371;28;20049;-79
2023/07/12 11:35:51;;;;;;;5.50;1.70;;;;;;;21.54;100.00;100995.97;5000521;28;20056;-77